createdAt,value
2023-05-11T00:01:09.496Z,45.51
2023-05-11T00:03:40.075Z,45.63
2023-05-11T00:06:10.463Z,45.25
2023-05-11T00:08:42.899Z,45.23
2023-05-11T00:11:12.874Z,44.94
2023-05-11T00:13:42.836Z,45.31
2023-05-11T00:16:13.413Z,45.14
2023-05-11T00:18:44.280Z,44.98
2023-05-11T00:21:14.701Z,45.05
2023-05-11T00:23:47.392Z,45.11
2023-05-11T00:26:17.452Z,44.98
2023-05-11T00:28:47.943Z,45.30
2023-05-11T00:31:18.561Z,45.30
2023-05-11T00:33:48.573Z,45.02
2023-05-11T00:36:18.744Z,45.16
2023-05-11T00:38:51.102Z,44.93
2023-05-11T00:41:22.029Z,45.12
2023-05-11T00:43:52.489Z,44.88
2023-05-11T00:46:23.468Z,44.75
2023-05-11T00:48:54.081Z,44.96
2023-05-11T00:51:25.496Z,45.08
2023-05-11T00:53:58.027Z,45.11
2023-05-11T00:56:28.914Z,45.19
2023-05-11T00:58:59.972Z,45.18
2023-05-11T01:01:31.381Z,45.27
2023-05-11T01:04:01.481Z,45.18
2023-05-11T01:06:47.564Z,45.15
2023-05-11T01:09:41.136Z,45.37
2023-05-11T01:12:23.655Z,45.08
2023-05-11T01:15:08.936Z,45.25
2023-05-11T01:17:51.372Z,45.16
2023-05-11T01:20:27.635Z,45.49
2023-05-11T01:23:44.893Z,45.22
2023-05-11T01:26:41.488Z,45.51
2023-05-11T01:29:43.747Z,45.18
2023-05-11T01:32:22.378Z,45.13
2023-05-11T01:35:03.580Z,45.10
2023-05-11T01:37:36.621Z,45.30
2023-05-11T01:40:15.916Z,45.40
2023-05-11T01:42:52.595Z,45.22
2023-05-11T01:45:27.503Z,45.48
2023-05-11T01:48:03.365Z,45.30
2023-05-11T01:50:37.137Z,45.31
2023-05-11T01:53:08.912Z,45.47
2023-05-11T01:55:42.559Z,45.40
2023-05-11T01:58:17.073Z,45.66
2023-05-11T02:00:48.783Z,45.62
2023-05-11T02:03:23.986Z,45.63
2023-05-11T02:05:57.375Z,45.73
2023-05-11T02:08:30.066Z,45.78
2023-05-11T02:11:01.416Z,45.61
2023-05-11T02:13:33.974Z,45.86
2023-05-11T02:16:06.364Z,45.65
2023-05-11T02:18:42.180Z,45.66
2023-05-11T02:21:15.284Z,45.74
2023-05-11T02:23:48.495Z,45.76
2023-05-11T02:26:20.375Z,45.74
2023-05-11T02:28:50.452Z,45.50
2023-05-11T02:31:26.599Z,45.85
2023-05-11T02:34:06.833Z,46.09
2023-05-11T02:36:41.215Z,46.09
2023-05-11T02:39:15.971Z,45.71
2023-05-11T02:41:49.031Z,45.90
2023-05-11T02:44:22.237Z,45.90
2023-05-11T02:46:57.320Z,45.85
2023-05-11T02:49:33.615Z,46.06
2023-05-11T02:52:05.951Z,45.90
2023-05-11T02:54:37.449Z,45.98
2023-05-11T02:57:08.271Z,46.06
2023-05-11T02:59:39.333Z,46.00
2023-05-11T03:02:10.568Z,46.11
2023-05-11T03:04:42.620Z,46.24
2023-05-11T03:07:13.071Z,46.24
2023-05-11T03:09:43.640Z,46.19
2023-05-11T03:12:14.124Z,46.16
2023-05-11T03:14:45.947Z,46.44
2023-05-11T03:17:18.369Z,46.02
2023-05-11T03:19:51.752Z,46.06
2023-05-11T03:22:25.415Z,46.26
2023-05-11T03:24:56.588Z,46.55
2023-05-11T03:27:34.897Z,46.37
2023-05-11T03:30:10.221Z,46.29
2023-05-11T03:32:40.783Z,46.31
2023-05-11T03:35:13.056Z,46.34
2023-05-11T03:37:44.806Z,46.28
2023-05-11T03:40:19.346Z,46.21
2023-05-11T03:42:51.348Z,46.31
2023-05-11T03:45:23.880Z,46.59
2023-05-11T03:47:56.664Z,46.19
2023-05-11T03:50:31.130Z,46.18
2023-05-11T03:53:02.507Z,46.43
2023-05-11T03:55:32.758Z,46.71
2023-05-11T03:58:04.456Z,46.39
2023-05-11T04:00:35.000Z,46.32
2023-05-11T04:03:08.282Z,46.26
2023-05-11T04:05:40.890Z,46.50
2023-05-11T04:08:13.433Z,46.36
2023-05-11T04:10:43.765Z,46.42
2023-05-11T04:13:13.493Z,46.48
2023-05-11T04:15:43.983Z,46.48
2023-05-11T04:18:14.309Z,46.61
2023-05-11T04:20:46.604Z,46.67
2023-05-11T04:23:18.336Z,46.82
2023-05-11T04:25:49.329Z,46.77
2023-05-11T04:28:20.243Z,47.04
2023-05-11T04:30:56.187Z,47.14
2023-05-11T04:33:27.345Z,47.18
2023-05-11T04:36:00.178Z,47.08
2023-05-11T04:38:31.394Z,46.99
2023-05-11T04:41:05.861Z,46.85
2023-05-11T04:43:36.722Z,47.22
2023-05-11T04:46:07.579Z,47.01
2023-05-11T04:48:38.177Z,47.38
2023-05-11T04:51:11.311Z,47.24
2023-05-11T04:53:42.458Z,47.05
2023-05-11T04:56:13.142Z,46.90
2023-05-11T04:58:44.450Z,47.01
2023-05-11T05:01:15.032Z,47.38
2023-05-11T05:03:45.653Z,46.90
2023-05-11T05:06:18.186Z,47.25
2023-05-11T05:08:48.731Z,47.14
2023-05-11T05:11:18.870Z,47.33
2023-05-11T05:13:48.949Z,47.55
2023-05-11T05:16:18.839Z,47.31
2023-05-11T05:18:49.459Z,47.59
2023-05-11T05:21:21.367Z,47.64
2023-05-11T05:23:51.347Z,47.42
2023-05-11T05:26:22.167Z,47.57
2023-05-11T05:28:52.675Z,47.64
2023-05-11T05:31:23.276Z,47.84
2023-05-11T05:33:53.465Z,47.78
2023-05-11T05:36:25.989Z,47.72
2023-05-11T05:38:56.605Z,47.79
2023-05-11T05:41:27.431Z,47.82
2023-05-11T05:43:57.521Z,48.18
2023-05-11T05:46:28.145Z,47.68
2023-05-11T05:48:58.556Z,48.10
2023-05-11T05:51:31.066Z,47.80
2023-05-11T05:54:01.730Z,47.59
2023-05-11T05:56:32.500Z,47.66
2023-05-11T05:59:02.943Z,47.80
2023-05-11T06:01:33.794Z,48.08
2023-05-11T06:04:04.732Z,47.75
2023-05-11T06:06:37.434Z,47.78
2023-05-11T06:09:08.377Z,47.75
2023-05-11T06:11:39.261Z,47.58
2023-05-11T06:14:09.761Z,47.36
2023-05-11T06:16:40.460Z,47.85
2023-05-11T06:19:12.004Z,47.59
2023-05-11T06:21:46.432Z,47.58
2023-05-11T06:24:16.920Z,47.67
2023-05-11T06:26:47.406Z,47.71
2023-05-11T06:29:18.077Z,47.56
2023-05-11T06:31:50.327Z,47.75
2023-05-11T06:34:20.895Z,47.87
2023-05-11T06:36:53.420Z,47.39
2023-05-11T06:39:23.854Z,47.38
2023-05-11T06:41:57.052Z,47.61
2023-05-11T06:44:29.203Z,47.63
2023-05-11T06:47:01.563Z,47.72
2023-05-11T06:49:32.058Z,47.58
2023-05-11T06:52:04.279Z,47.50
2023-05-11T06:54:34.866Z,47.92
2023-05-11T06:57:05.834Z,47.27
2023-05-11T06:59:36.330Z,47.29
2023-05-11T07:02:06.388Z,47.80
2023-05-11T07:04:36.621Z,47.29
2023-05-11T07:07:11.796Z,47.30
2023-05-11T07:09:42.961Z,47.63
2023-05-11T07:12:13.839Z,47.57
2023-05-11T07:14:43.757Z,47.58
2023-05-11T07:17:13.901Z,47.41
2023-05-11T07:19:44.383Z,47.04
2023-05-11T07:22:17.049Z,46.92
2023-05-11T07:24:47.204Z,47.06
2023-05-11T07:27:17.818Z,47.30
2023-05-11T07:29:48.274Z,46.78
2023-05-11T07:32:18.729Z,46.50
2023-05-11T07:34:49.226Z,46.59
2023-05-11T07:37:20.842Z,46.40
2023-05-11T07:39:51.398Z,46.80
2023-05-11T07:42:21.485Z,46.45
2023-05-11T07:44:51.996Z,46.41
2023-05-11T07:47:23.775Z,46.00
2023-05-11T07:49:54.218Z,45.97
2023-05-11T07:52:27.710Z,46.33
2023-05-11T07:54:58.292Z,45.83
2023-05-11T07:57:28.883Z,46.46
2023-05-11T07:59:58.770Z,46.13
2023-05-11T08:02:29.705Z,45.75
2023-05-11T08:05:00.326Z,46.01
2023-05-11T08:07:33.004Z,45.79
2023-05-11T08:10:03.513Z,45.71
2023-05-11T08:12:33.930Z,45.51
2023-05-11T08:15:04.962Z,45.60
2023-05-11T08:17:35.622Z,45.80
2023-05-11T08:20:07.027Z,45.29
2023-05-11T08:22:39.618Z,45.29
2023-05-11T08:25:11.343Z,45.58
2023-05-11T08:27:41.980Z,45.61
2023-05-11T08:30:14.237Z,45.69
2023-05-11T08:35:18.127Z,45.56
2023-05-11T08:37:50.933Z,46.00
2023-05-11T08:40:22.794Z,46.10
2023-05-11T08:42:57.929Z,45.81
2023-05-11T08:45:29.780Z,45.43
2023-05-11T08:48:01.990Z,45.70
2023-05-11T08:50:32.272Z,45.50
2023-05-11T08:53:05.661Z,45.21
2023-05-11T08:55:39.108Z,45.31
2023-05-11T08:58:10.361Z,45.31
2023-05-11T09:00:41.158Z,45.49
2023-05-11T09:03:13.193Z,45.49
2023-05-11T09:05:45.697Z,45.18
2023-05-11T09:08:20.204Z,45.23
2023-05-11T09:10:52.476Z,45.54
2023-05-11T09:13:24.918Z,45.33
2023-05-11T09:15:55.126Z,45.33
2023-05-11T09:18:25.294Z,45.37
2023-05-11T09:20:56.224Z,45.33
2023-05-11T09:23:30.363Z,44.92
2023-05-11T09:26:00.322Z,45.32
2023-05-11T09:28:35.929Z,44.85
2023-05-11T09:31:07.165Z,45.04
2023-05-11T09:33:37.657Z,45.07
2023-05-11T09:36:09.673Z,44.86
2023-05-11T09:38:42.269Z,45.17
2023-05-11T09:41:12.838Z,45.24
2023-05-11T09:43:43.721Z,44.72
2023-05-11T09:46:24.459Z,44.47
2023-05-11T09:49:02.819Z,44.38
2023-05-11T09:51:35.128Z,44.57
2023-05-11T09:54:22.165Z,44.40
2023-05-11T09:56:58.727Z,45.10
2023-05-11T09:59:43.337Z,44.98
2023-05-11T10:02:25.360Z,44.92
2023-05-11T10:04:58.428Z,44.62
2023-05-11T10:07:34.593Z,44.94
2023-05-11T10:10:09.750Z,44.42
2023-05-11T10:12:40.816Z,44.68
2023-05-11T10:15:13.855Z,44.44
2023-05-11T10:17:46.882Z,44.33
2023-05-11T10:20:20.536Z,44.87
2023-05-11T10:22:55.704Z,44.76
2023-05-11T10:25:29.026Z,44.28
2023-05-11T10:28:00.868Z,44.44
2023-05-11T10:30:32.680Z,44.66
2023-05-11T10:33:04.659Z,44.26
2023-05-11T10:35:36.083Z,44.42
2023-05-11T10:38:07.100Z,44.42
2023-05-11T10:40:45.528Z,44.48
2023-05-11T10:43:57.046Z,44.64
2023-05-11T10:46:59.596Z,44.04
2023-05-11T10:50:07.666Z,44.61
2023-05-11T10:53:05.210Z,44.13
2023-05-11T10:56:06.552Z,44.68
2023-05-11T10:59:02.779Z,44.15
2023-05-11T11:01:41.499Z,44.52
2023-05-11T11:04:14.101Z,44.22
2023-05-11T11:06:46.674Z,43.90
2023-05-11T11:09:19.017Z,44.42
2023-05-11T11:11:51.543Z,44.05
2023-05-11T11:14:22.389Z,44.17
2023-05-11T11:17:35.888Z,44.22
2023-05-11T11:20:08.945Z,44.17
2023-05-11T11:22:51.596Z,44.48
2023-05-11T11:26:03.549Z,44.35
2023-05-11T11:29:15.433Z,44.02
2023-05-11T11:31:47.397Z,44.58
2023-05-11T11:34:39.862Z,44.10
2023-05-11T11:37:15.023Z,44.58
2023-05-11T11:40:15.225Z,44.60
2023-05-11T11:42:48.029Z,44.36
2023-05-11T11:45:40.325Z,44.19
2023-05-11T11:48:36.072Z,44.01
2023-05-11T11:51:11.078Z,44.33
2023-05-11T11:54:02.040Z,44.00
2023-05-11T11:56:46.707Z,44.22
2023-05-11T11:59:20.461Z,43.68
2023-05-11T12:01:57.577Z,43.84
2023-05-11T12:05:00.276Z,44.08
2023-05-11T12:07:36.956Z,43.49
2023-05-11T12:10:09.123Z,43.86
2023-05-11T12:12:41.936Z,43.44
2023-05-11T12:15:28.075Z,43.91
2023-05-11T12:18:03.006Z,43.81
2023-05-11T12:20:33.963Z,43.92
2023-05-11T12:23:04.835Z,43.98
2023-05-11T12:25:35.593Z,43.79
2023-05-11T12:28:07.053Z,43.64
2023-05-11T12:30:38.584Z,43.21
2023-05-11T12:33:11.480Z,43.24
2023-05-11T12:35:42.223Z,43.16
2023-05-11T12:38:14.078Z,42.99
2023-05-11T12:40:51.493Z,42.93
2023-05-11T12:43:23.228Z,43.37
2023-05-11T12:45:54.105Z,43.12
2023-05-11T12:48:26.320Z,43.46
2023-05-11T12:50:57.253Z,43.35
2023-05-11T12:53:27.829Z,43.43
2023-05-11T12:56:02.007Z,43.61
2023-05-11T12:58:40.381Z,43.44
2023-05-11T13:01:11.910Z,43.05
2023-05-11T13:03:50.004Z,42.79
2023-05-11T13:06:23.177Z,43.04
2023-05-11T13:08:54.245Z,42.95
2023-05-11T13:11:27.324Z,42.82
2023-05-11T13:13:59.437Z,42.57
2023-05-11T13:16:31.447Z,42.74
2023-05-11T13:19:07.104Z,42.76
2023-05-11T13:21:37.891Z,42.16
2023-05-11T13:24:08.864Z,42.62
2023-05-11T13:26:39.329Z,41.95
2023-05-11T13:29:11.131Z,42.57
2023-05-11T13:31:53.196Z,41.95
2023-05-11T13:34:41.417Z,42.44
2023-05-11T13:37:11.884Z,42.02
2023-05-11T13:39:42.488Z,41.92
2023-05-11T13:42:13.510Z,42.13
2023-05-11T13:44:44.172Z,41.90
2023-05-11T13:47:15.035Z,41.89
2023-05-11T13:49:48.154Z,41.95
2023-05-11T13:52:20.825Z,42.29
2023-05-11T13:54:52.516Z,42.38
2023-05-11T13:57:24.746Z,42.07
2023-05-11T13:59:56.229Z,41.99
2023-05-11T14:02:28.338Z,42.15
2023-05-11T14:05:00.624Z,41.84
2023-05-11T14:07:42.867Z,42.35
2023-05-11T14:10:16.700Z,41.91
2023-05-11T14:12:47.465Z,42.24
2023-05-11T14:15:18.327Z,41.76
2023-05-11T14:17:49.182Z,41.82
2023-05-11T14:20:21.510Z,41.94
2023-05-11T14:22:52.218Z,41.68
2023-05-11T14:25:23.068Z,42.14
2023-05-11T14:27:56.275Z,41.99
2023-05-11T14:30:27.649Z,41.42
2023-05-11T14:33:00.952Z,41.49
2023-05-11T14:35:33.710Z,41.72
2023-05-11T14:38:05.275Z,41.33
2023-05-11T14:40:36.132Z,41.54
2023-05-11T14:43:07.151Z,41.58
2023-05-11T14:45:39.799Z,41.45
2023-05-11T14:48:10.823Z,40.82
2023-05-11T14:50:45.807Z,41.29
2023-05-11T14:53:18.198Z,40.61
2023-05-11T14:55:50.565Z,40.51
2023-05-11T14:58:25.473Z,40.53
2023-05-11T15:01:00.226Z,40.30
2023-05-11T15:03:31.315Z,40.48
2023-05-11T15:06:09.159Z,40.07
2023-05-11T15:08:53.062Z,40.54
2023-05-11T15:11:26.628Z,40.02
2023-05-11T15:13:57.466Z,40.34
2023-05-11T15:16:29.028Z,40.43
2023-05-11T15:19:04.102Z,39.99
2023-05-11T15:21:38.320Z,39.71
2023-05-11T15:24:11.853Z,40.20
2023-05-11T15:26:43.549Z,39.81
2023-05-11T15:29:14.580Z,40.00
2023-05-11T15:31:47.758Z,39.80
2023-05-11T15:34:18.421Z,39.66
2023-05-11T15:36:52.856Z,39.66
2023-05-11T15:39:25.198Z,39.77
2023-05-11T15:41:57.837Z,39.51
2023-05-11T15:44:32.045Z,39.92
2023-05-11T15:47:07.889Z,39.92
2023-05-11T15:49:49.110Z,39.45
2023-05-11T15:52:43.371Z,39.81
2023-05-11T15:55:42.669Z,39.72
2023-05-11T15:58:18.784Z,39.56
2023-05-11T16:01:02.166Z,39.54
2023-05-11T16:03:52.939Z,39.31
2023-05-11T16:06:32.264Z,39.08
2023-05-11T16:09:16.680Z,39.21
2023-05-11T16:11:59.213Z,39.72
2023-05-11T16:14:51.087Z,39.65
2023-05-11T16:17:32.329Z,39.21
2023-05-11T16:20:16.637Z,39.04
2023-05-11T16:22:54.294Z,39.65
2023-05-11T16:25:37.219Z,39.32
2023-05-11T16:28:15.609Z,39.56
2023-05-11T16:31:05.176Z,39.41
2023-05-11T16:33:47.308Z,39.07
2023-05-11T16:36:29.423Z,39.54
2023-05-11T16:39:06.360Z,39.73
2023-05-11T16:41:48.850Z,38.96
2023-05-11T16:44:28.039Z,39.31
2023-05-11T16:47:09.157Z,39.24
2023-05-11T16:49:48.054Z,39.16
2023-05-11T16:52:27.856Z,38.90
2023-05-11T16:55:05.587Z,39.46
2023-05-11T16:57:51.603Z,39.47
2023-05-11T17:00:34.204Z,39.66
2023-05-11T17:03:26.436Z,39.36
2023-05-11T17:06:04.174Z,39.32
2023-05-11T17:08:50.579Z,39.08
2023-05-11T17:11:30.816Z,39.29
2023-05-11T17:14:14.193Z,39.59
2023-05-11T17:16:50.438Z,39.52
2023-05-11T17:19:31.705Z,39.04
2023-05-11T17:22:10.783Z,38.95
2023-05-11T17:24:47.123Z,39.52
2023-05-11T17:27:24.648Z,39.46
2023-05-11T17:30:02.262Z,39.69
2023-05-11T17:32:45.380Z,39.39
2023-05-11T17:35:31.709Z,39.25
2023-05-11T17:38:11.665Z,39.50
2023-05-11T17:40:46.109Z,39.77
2023-05-11T17:43:24.171Z,39.66
2023-05-11T17:46:05.122Z,39.71
2023-05-11T17:48:53.789Z,39.67
2023-05-11T17:51:30.401Z,39.92
2023-05-11T17:54:15.169Z,40.05
2023-05-11T17:56:49.226Z,40.22
2023-05-11T17:59:30.060Z,40.08
2023-05-11T18:02:09.181Z,40.00
2023-05-11T18:04:42.695Z,39.72
2023-05-11T18:07:20.101Z,40.07
2023-05-11T18:09:53.383Z,39.64
2023-05-11T18:12:34.048Z,39.53
2023-05-11T18:15:08.988Z,39.99
2023-05-11T18:17:57.092Z,39.89
2023-05-11T18:20:37.512Z,40.16
2023-05-11T18:23:13.612Z,39.91
2023-05-11T18:25:49.013Z,40.02
2023-05-11T18:28:28.185Z,39.88
2023-05-11T18:31:08.576Z,39.92
2023-05-11T18:33:51.465Z,39.47
2023-05-11T18:36:35.579Z,39.44
2023-05-11T18:39:23.714Z,39.77
2023-05-11T18:42:06.515Z,39.61
2023-05-11T18:44:45.080Z,39.71
2023-05-11T18:47:20.579Z,39.69
2023-05-11T18:50:02.142Z,39.32
2023-05-11T18:52:40.940Z,39.71
2023-05-11T18:55:51.743Z,39.70
2023-05-11T18:58:32.996Z,39.79
2023-05-11T19:01:15.066Z,39.73
2023-05-11T19:03:56.305Z,39.56
2023-05-11T19:06:39.630Z,39.73
2023-05-11T19:09:16.616Z,39.32
2023-05-11T19:11:51.386Z,39.36
2023-05-11T19:14:35.913Z,39.74
2023-05-11T19:17:09.734Z,39.48
2023-05-11T19:19:42.170Z,39.35
2023-05-11T19:22:21.703Z,39.50
2023-05-11T19:25:07.515Z,39.43
2023-05-11T19:27:45.733Z,39.66
2023-05-11T19:30:22.975Z,39.64
2023-05-11T19:32:58.065Z,39.28
2023-05-11T19:35:43.066Z,39.60
2023-05-11T19:38:18.816Z,39.51
2023-05-11T19:40:54.309Z,39.05
2023-05-11T19:43:31.892Z,39.43
2023-05-11T19:46:10.448Z,39.55
2023-05-11T19:48:47.906Z,39.07
2023-05-11T19:51:24.555Z,39.70
2023-05-11T19:54:03.791Z,39.19
2023-05-11T19:56:40.652Z,39.29
2023-05-11T19:59:16.657Z,39.22
2023-05-11T20:01:51.192Z,39.06
2023-05-11T20:04:23.773Z,39.39
2023-05-11T20:06:55.647Z,39.33
2023-05-11T20:09:39.697Z,39.43
2023-05-11T20:12:23.045Z,39.47
2023-05-11T20:14:58.854Z,38.91
2023-05-11T20:17:45.396Z,39.15
2023-05-11T20:20:28.764Z,39.36
2023-05-11T20:23:03.973Z,39.37
2023-05-11T20:25:45.781Z,39.42
2023-05-11T20:28:22.119Z,39.58
2023-05-11T20:31:00.483Z,39.37
2023-05-11T20:36:22.827Z,38.80
2023-05-11T20:38:57.978Z,38.98
2023-05-11T20:41:32.660Z,38.70
2023-05-11T20:44:10.619Z,39.30
2023-05-11T20:46:51.140Z,39.45
2023-05-11T20:49:37.580Z,38.97
2023-05-11T20:52:14.213Z,38.84
2023-05-11T20:54:48.209Z,39.13
2023-05-11T20:57:27.438Z,39.36
2023-05-11T21:00:06.961Z,38.94
2023-05-11T21:02:45.950Z,38.85
2023-05-11T21:05:25.423Z,38.87
2023-05-11T21:07:57.629Z,39.23
2023-05-11T21:10:31.730Z,39.26
2023-05-11T21:13:08.274Z,38.71
2023-05-11T21:15:44.351Z,39.19
2023-05-11T21:18:16.715Z,39.12
2023-05-11T21:20:56.919Z,38.48
2023-05-11T21:23:30.680Z,38.93
2023-05-11T21:26:06.546Z,38.73
2023-05-11T21:28:42.516Z,38.34
2023-05-11T21:31:15.497Z,39.02
2023-05-11T21:33:58.213Z,38.55
2023-05-11T21:36:28.912Z,38.56
2023-05-11T21:39:02.001Z,38.49
2023-05-11T21:41:35.130Z,38.17
2023-05-11T21:44:11.093Z,38.55
2023-05-11T21:46:43.667Z,38.79
2023-05-11T21:49:20.688Z,38.71
2023-05-11T21:51:53.299Z,38.41
2023-05-11T21:54:31.734Z,38.39
2023-05-11T21:57:06.365Z,38.76
2023-05-11T21:59:42.132Z,38.11
2023-05-11T22:02:13.648Z,38.51
2023-05-11T22:04:45.896Z,38.75
2023-05-11T22:07:16.759Z,38.07
2023-05-11T22:09:51.541Z,38.49
2023-05-11T22:12:22.949Z,38.39
2023-05-11T22:14:58.990Z,38.43
2023-05-11T22:17:29.997Z,38.59
2023-05-11T22:20:00.989Z,38.67
2023-05-11T22:22:31.238Z,38.72
2023-05-11T22:25:01.891Z,38.79
2023-05-11T22:27:33.019Z,39.18
2023-05-11T22:30:05.553Z,39.07
2023-05-11T22:32:36.561Z,39.00
2023-05-11T22:35:08.010Z,38.95
2023-05-11T22:37:38.588Z,38.81
2023-05-11T22:40:10.886Z,39.36
2023-05-11T22:42:42.167Z,39.26
2023-05-11T22:45:15.653Z,39.41
2023-05-11T22:47:46.311Z,39.65
2023-05-11T22:50:16.511Z,39.27
2023-05-11T22:52:47.789Z,39.57
2023-05-11T22:55:18.434Z,39.58
2023-05-11T22:57:48.443Z,40.08
2023-05-11T23:00:21.956Z,39.87
2023-05-11T23:02:52.345Z,39.91
2023-05-11T23:05:22.993Z,39.67
2023-05-11T23:07:53.320Z,39.75
2023-05-11T23:10:23.836Z,40.12
2023-05-11T23:12:54.438Z,40.42
2023-05-11T23:15:27.462Z,40.40
2023-05-11T23:17:57.942Z,40.37
2023-05-11T23:20:28.641Z,40.54
2023-05-11T23:23:00.131Z,40.17
2023-05-11T23:25:31.654Z,40.45
2023-05-11T23:28:01.772Z,40.81
2023-05-11T23:30:34.221Z,40.49
2023-05-11T23:33:04.338Z,40.83
2023-05-11T23:35:35.554Z,40.68
2023-05-11T23:38:06.051Z,40.45
2023-05-11T23:40:37.097Z,40.75
2023-05-11T23:43:07.809Z,41.05
2023-05-11T23:45:40.560Z,40.85
2023-05-11T23:48:10.670Z,40.63
2023-05-11T23:50:41.186Z,40.53
2023-05-11T23:53:11.969Z,40.54
2023-05-11T23:55:41.849Z,40.93
2023-05-11T23:58:12.322Z,40.72
